sensor_id;sensor_type;location;lat;lon;timestamp;P1;durP1;ratioP1;P2;durP2;ratioP2
13855;SDS011;6998;53.608;9.958;2023-04-01T00:01:07;9.15;;;6.80;;
13855;SDS011;6998;53.608;9.958;2023-04-01T00:03:34;12.25;;;6.68;;
13855;SDS011;6998;53.608;9.958;2023-04-01T00:06:01;10.48;;;7.13;;
13855;SDS011;6998;53.608;9.958;2023-04-01T00:08:29;11.52;;;7.07;;
13855;SDS011;6998;53.608;9.958;2023-04-01T00:10:56;12.43;;;7.07;;
13855;SDS011;6998;53.608;9.958;2023-04-01T00:13:23;9.57;;;6.82;;
13855;SDS011;6998;53.608;9.958;2023-04-01T00:15:50;11.00;;;6.72;;
13855;SDS011;6998;53.608;9.958;2023-04-01T00:18:17;11.52;;;7.35;;
13855;SDS011;6998;53.608;9.958;2023-04-01T00:20:45;10.02;;;6.80;;
13855;SDS011;6998;53.608;9.958;2023-04-01T00:23:12;10.52;;;6.40;;
13855;SDS011;6998;53.608;9.958;2023-04-01T00:25:41;12.35;;;7.10;;
13855;SDS011;6998;53.608;9.958;2023-04-01T00:28:08;9.73;;;6.70;;
13855;SDS011;6998;53.608;9.958;2023-04-01T00:30:35;8.82;;;6.82;;
13855;SDS011;6998;53.608;9.958;2023-04-01T00:33:02;7.32;;;6.43;;
13855;SDS011;6998;53.608;9.958;2023-04-01T00:35:28;7.75;;;6.40;;
13855;SDS011;6998;53.608;9.958;2023-04-01T00:37:55;8.85;;;6.65;;
13855;SDS011;6998;53.608;9.958;2023-04-01T00:40:24;11.80;;;7.22;;
13855;SDS011;6998;53.608;9.958;2023-04-01T00:42:54;11.23;;;6.55;;
13855;SDS011;6998;53.608;9.958;2023-04-01T00:45:23;10.07;;;7.30;;
13855;SDS011;6998;53.608;9.958;2023-04-01T00:47:56;8.43;;;6.05;;
13855;SDS011;6998;53.608;9.958;2023-04-01T00:50:27;11.63;;;6.75;;
13855;SDS011;6998;53.608;9.958;2023-04-01T00:52:56;9.25;;;6.15;;
13855;SDS011;6998;53.608;9.958;2023-04-01T00:55:24;11.02;;;6.90;;
13855;SDS011;6998;53.608;9.958;2023-04-01T00:57:55;11.63;;;7.00;;
13855;SDS011;6998;53.608;9.958;2023-04-01T01:00:24;11.48;;;7.43;;
13855;SDS011;6998;53.608;9.958;2023-04-01T01:02:51;11.10;;;7.43;;
13855;SDS011;6998;53.608;9.958;2023-04-01T01:05:20;13.23;;;6.85;;
13855;SDS011;6998;53.608;9.958;2023-04-01T01:07:55;11.02;;;7.07;;
13855;SDS011;6998;53.608;9.958;2023-04-01T01:10:29;11.65;;;7.18;;
13855;SDS011;6998;53.608;9.958;2023-04-01T01:13:01;11.57;;;6.88;;
13855;SDS011;6998;53.608;9.958;2023-04-01T01:15:36;10.07;;;6.57;;
13855;SDS011;6998;53.608;9.958;2023-04-01T01:18:07;9.65;;;6.45;;
13855;SDS011;6998;53.608;9.958;2023-04-01T01:20:43;11.75;;;6.63;;
13855;SDS011;6998;53.608;9.958;2023-04-01T01:23:42;8.80;;;6.28;;
13855;SDS011;6998;53.608;9.958;2023-04-01T01:26:44;8.15;;;6.13;;
13855;SDS011;6998;53.608;9.958;2023-04-01T01:32:17;10.55;;;6.75;;
13855;SDS011;6998;53.608;9.958;2023-04-01T01:34:55;10.23;;;6.38;;
13855;SDS011;6998;53.608;9.958;2023-04-01T01:37:33;9.15;;;6.40;;
13855;SDS011;6998;53.608;9.958;2023-04-01T01:40:02;9.68;;;6.25;;
13855;SDS011;6998;53.608;9.958;2023-04-01T01:42:32;9.07;;;6.05;;
13855;SDS011;6998;53.608;9.958;2023-04-01T01:45:03;11.43;;;6.30;;
13855;SDS011;6998;53.608;9.958;2023-04-01T01:47:31;8.27;;;6.03;;
13855;SDS011;6998;53.608;9.958;2023-04-01T01:49:59;10.52;;;5.85;;
13855;SDS011;6998;53.608;9.958;2023-04-01T01:52:29;10.30;;;6.32;;
13855;SDS011;6998;53.608;9.958;2023-04-01T01:54:56;9.88;;;6.65;;
13855;SDS011;6998;53.608;9.958;2023-04-01T01:57:24;8.35;;;6.25;;
13855;SDS011;6998;53.608;9.958;2023-04-01T01:59:55;8.98;;;6.15;;
13855;SDS011;6998;53.608;9.958;2023-04-01T02:02:24;8.88;;;6.03;;
13855;SDS011;6998;53.608;9.958;2023-04-01T02:04:56;8.63;;;5.93;;
13855;SDS011;6998;53.608;9.958;2023-04-01T02:07:24;10.70;;;6.50;;
13855;SDS011;6998;53.608;9.958;2023-04-01T02:09:55;9.32;;;6.03;;
13855;SDS011;6998;53.608;9.958;2023-04-01T02:12:22;9.52;;;6.45;;
13855;SDS011;6998;53.608;9.958;2023-04-01T02:14:52;10.98;;;6.30;;
13855;SDS011;6998;53.608;9.958;2023-04-01T02:17:21;8.60;;;5.75;;
13855;SDS011;6998;53.608;9.958;2023-04-01T02:19:51;10.95;;;6.63;;
13855;SDS011;6998;53.608;9.958;2023-04-01T02:22:21;11.10;;;6.85;;
13855;SDS011;6998;53.608;9.958;2023-04-01T02:24:50;9.98;;;5.43;;
13855;SDS011;6998;53.608;9.958;2023-04-01T02:27:21;6.88;;;5.47;;
13855;SDS011;6998;53.608;9.958;2023-04-01T02:29:49;9.25;;;5.55;;
13855;SDS011;6998;53.608;9.958;2023-04-01T02:32:16;8.68;;;5.80;;
13855;SDS011;6998;53.608;9.958;2023-04-01T02:34:45;8.30;;;5.35;;
13855;SDS011;6998;53.608;9.958;2023-04-01T02:37:13;8.57;;;5.53;;
13855;SDS011;6998;53.608;9.958;2023-04-01T02:40:10;7.80;;;5.10;;
13855;SDS011;6998;53.608;9.958;2023-04-01T02:42:40;6.82;;;5.13;;
13855;SDS011;6998;53.608;9.958;2023-04-01T02:45:08;9.52;;;5.30;;
13855;SDS011;6998;53.608;9.958;2023-04-01T02:47:35;9.18;;;5.63;;
13855;SDS011;6998;53.608;9.958;2023-04-01T02:50:02;9.02;;;5.53;;
13855;SDS011;6998;53.608;9.958;2023-04-01T02:52:29;10.63;;;5.90;;
13855;SDS011;6998;53.608;9.958;2023-04-01T02:54:56;9.93;;;5.53;;
13855;SDS011;6998;53.608;9.958;2023-04-01T02:57:23;9.35;;;5.68;;
13855;SDS011;6998;53.608;9.958;2023-04-01T02:59:52;8.88;;;5.03;;
13855;SDS011;6998;53.608;9.958;2023-04-01T03:02:19;9.25;;;6.03;;
13855;SDS011;6998;53.608;9.958;2023-04-01T03:04:46;8.63;;;5.43;;
13855;SDS011;6998;53.608;9.958;2023-04-01T03:07:13;9.70;;;5.88;;
13855;SDS011;6998;53.608;9.958;2023-04-01T03:09:39;8.27;;;5.82;;
13855;SDS011;6998;53.608;9.958;2023-04-01T03:12:06;7.90;;;5.88;;
13855;SDS011;6998;53.608;9.958;2023-04-01T03:14:33;9.25;;;5.93;;
13855;SDS011;6998;53.608;9.958;2023-04-01T03:17:01;10.07;;;6.03;;
13855;SDS011;6998;53.608;9.958;2023-04-01T03:19:28;10.07;;;6.25;;
13855;SDS011;6998;53.608;9.958;2023-04-01T03:21:55;6.93;;;5.55;;
13855;SDS011;6998;53.608;9.958;2023-04-01T03:24:21;8.07;;;6.22;;
13855;SDS011;6998;53.608;9.958;2023-04-01T03:26:48;9.18;;;6.25;;
13855;SDS011;6998;53.608;9.958;2023-04-01T03:29:15;8.65;;;6.15;;
13855;SDS011;6998;53.608;9.958;2023-04-01T03:31:42;7.88;;;6.30;;
13855;SDS011;6998;53.608;9.958;2023-04-01T03:34:12;8.77;;;6.30;;
13855;SDS011;6998;53.608;9.958;2023-04-01T03:36:38;7.57;;;5.75;;
13855;SDS011;6998;53.608;9.958;2023-04-01T03:39:05;9.80;;;6.65;;
13855;SDS011;6998;53.608;9.958;2023-04-01T03:41:32;9.40;;;6.57;;
13855;SDS011;6998;53.608;9.958;2023-04-01T03:44:01;9.85;;;7.13;;
13855;SDS011;6998;53.608;9.958;2023-04-01T03:46:28;10.93;;;6.95;;
13855;SDS011;6998;53.608;9.958;2023-04-01T03:48:54;9.68;;;6.70;;
13855;SDS011;6998;53.608;9.958;2023-04-01T03:51:22;8.55;;;6.78;;
13855;SDS011;6998;53.608;9.958;2023-04-01T03:53:49;9.82;;;6.13;;
13855;SDS011;6998;53.608;9.958;2023-04-01T03:56:16;8.80;;;7.07;;
13855;SDS011;6998;53.608;9.958;2023-04-01T03:58:43;8.55;;;6.95;;
13855;SDS011;6998;53.608;9.958;2023-04-01T04:01:14;9.43;;;6.93;;
13855;SDS011;6998;53.608;9.958;2023-04-01T04:03:45;7.93;;;6.80;;
13855;SDS011;6998;53.608;9.958;2023-04-01T04:06:14;9.75;;;6.88;;
13855;SDS011;6998;53.608;9.958;2023-04-01T04:08:42;9.52;;;7.22;;
13855;SDS011;6998;53.608;9.958;2023-04-01T04:11:09;12.68;;;7.80;;
13855;SDS011;6998;53.608;9.958;2023-04-01T04:13:37;12.88;;;7.57;;
13855;SDS011;6998;53.608;9.958;2023-04-01T04:16:04;8.65;;;6.90;;
13855;SDS011;6998;53.608;9.958;2023-04-01T04:18:31;9.15;;;7.53;;
13855;SDS011;6998;53.608;9.958;2023-04-01T04:20:58;10.75;;;7.53;;
13855;SDS011;6998;53.608;9.958;2023-04-01T04:23:25;10.07;;;7.55;;
13855;SDS011;6998;53.608;9.958;2023-04-01T04:25:57;9.95;;;7.40;;
13855;SDS011;6998;53.608;9.958;2023-04-01T04:28:25;10.40;;;7.38;;
13855;SDS011;6998;53.608;9.958;2023-04-01T04:30:52;9.32;;;7.10;;
13855;SDS011;6998;53.608;9.958;2023-04-01T04:33:19;9.25;;;7.47;;
13855;SDS011;6998;53.608;9.958;2023-04-01T04:35:46;8.73;;;7.28;;
13855;SDS011;6998;53.608;9.958;2023-04-01T04:38:14;11.13;;;7.50;;
13855;SDS011;6998;53.608;9.958;2023-04-01T04:40:41;10.57;;;7.90;;
13855;SDS011;6998;53.608;9.958;2023-04-01T04:43:12;8.65;;;7.00;;
13855;SDS011;6998;53.608;9.958;2023-04-01T04:45:40;8.40;;;7.43;;
13855;SDS011;6998;53.608;9.958;2023-04-01T04:48:07;10.20;;;7.60;;
13855;SDS011;6998;53.608;9.958;2023-04-01T04:50:35;8.82;;;7.35;;
13855;SDS011;6998;53.608;9.958;2023-04-01T04:53:02;9.00;;;7.90;;
13855;SDS011;6998;53.608;9.958;2023-04-01T04:55:29;10.50;;;9.18;;
13855;SDS011;6998;53.608;9.958;2023-04-01T04:57:55;13.02;;;9.05;;
13855;SDS011;6998;53.608;9.958;2023-04-01T05:00:24;9.70;;;8.70;;
13855;SDS011;6998;53.608;9.958;2023-04-01T05:02:50;11.93;;;8.80;;
13855;SDS011;6998;53.608;9.958;2023-04-01T05:05:17;9.48;;;8.45;;
13855;SDS011;6998;53.608;9.958;2023-04-01T05:07:44;11.68;;;8.93;;
13855;SDS011;6998;53.608;9.958;2023-04-01T05:10:11;12.70;;;9.40;;
13855;SDS011;6998;53.608;9.958;2023-04-01T05:12:37;6.78;;;5.75;;
13855;SDS011;6998;53.608;9.958;2023-04-01T05:15:04;4.07;;;2.88;;
13855;SDS011;6998;53.608;9.958;2023-04-01T05:17:33;2.40;;;2.00;;
13855;SDS011;6998;53.608;9.958;2023-04-01T05:20:00;1.42;;;1.33;;
13855;SDS011;6998;53.608;9.958;2023-04-01T05:22:27;1.58;;;1.40;;
13855;SDS011;6998;53.608;9.958;2023-04-01T05:24:54;2.10;;;1.48;;
13855;SDS011;6998;53.608;9.958;2023-04-01T05:27:21;1.47;;;1.20;;
13855;SDS011;6998;53.608;9.958;2023-04-01T05:29:47;1.30;;;1.20;;
13855;SDS011;6998;53.608;9.958;2023-04-01T05:32:14;1.30;;;1.20;;
13855;SDS011;6998;53.608;9.958;2023-04-01T05:34:42;1.30;;;1.20;;
13855;SDS011;6998;53.608;9.958;2023-04-01T05:37:09;1.40;;;1.10;;
13855;SDS011;6998;53.608;9.958;2023-04-01T05:39:36;1.53;;;1.30;;
13855;SDS011;6998;53.608;9.958;2023-04-01T05:42:05;1.20;;;1.10;;
13855;SDS011;6998;53.608;9.958;2023-04-01T05:44:32;1.85;;;1.20;;
13855;SDS011;6998;53.608;9.958;2023-04-01T05:46:59;1.87;;;1.67;;
13855;SDS011;6998;53.608;9.958;2023-04-01T05:49:26;1.60;;;1.30;;
13855;SDS011;6998;53.608;9.958;2023-04-01T05:51:54;1.37;;;1.17;;
13855;SDS011;6998;53.608;9.958;2023-04-01T05:54:21;1.60;;;1.37;;
13855;SDS011;6998;53.608;9.958;2023-04-01T05:56:48;1.67;;;1.57;;
13855;SDS011;6998;53.608;9.958;2023-04-01T05:59:15;1.30;;;1.20;;
13855;SDS011;6998;53.608;9.958;2023-04-01T06:01:42;1.40;;;1.30;;
13855;SDS011;6998;53.608;9.958;2023-04-01T06:04:10;1.80;;;1.30;;
13855;SDS011;6998;53.608;9.958;2023-04-01T06:06:40;1.40;;;1.30;;
13855;SDS011;6998;53.608;9.958;2023-04-01T06:09:12;2.20;;;1.30;;
13855;SDS011;6998;53.608;9.958;2023-04-01T06:11:43;1.50;;;1.40;;
13855;SDS011;6998;53.608;9.958;2023-04-01T06:14:23;1.40;;;1.30;;
13855;SDS011;6998;53.608;9.958;2023-04-01T06:17:03;1.67;;;1.30;;
13855;SDS011;6998;53.608;9.958;2023-04-01T06:19:47;1.60;;;1.20;;
13855;SDS011;6998;53.608;9.958;2023-04-01T06:22:26;1.40;;;1.30;;
13855;SDS011;6998;53.608;9.958;2023-04-01T06:28:18;1.40;;;1.30;;
13855;SDS011;6998;53.608;9.958;2023-04-01T06:31:03;3.00;;;1.30;;
13855;SDS011;6998;53.608;9.958;2023-04-01T06:33:40;1.77;;;1.40;;
13855;SDS011;6998;53.608;9.958;2023-04-01T06:36:37;1.70;;;1.13;;
13855;SDS011;6998;53.608;9.958;2023-04-01T06:39:13;1.57;;;1.10;;
13855;SDS011;6998;53.608;9.958;2023-04-01T06:42:12;1.03;;;0.93;;
13855;SDS011;6998;53.608;9.958;2023-04-01T06:45:01;1.20;;;1.10;;
13855;SDS011;6998;53.608;9.958;2023-04-01T06:47:45;1.03;;;0.93;;
13855;SDS011;6998;53.608;9.958;2023-04-01T06:50:24;1.37;;;0.90;;
13855;SDS011;6998;53.608;9.958;2023-04-01T06:52:58;1.60;;;1.00;;
13855;SDS011;6998;53.608;9.958;2023-04-01T06:55:32;1.10;;;0.97;;
13855;SDS011;6998;53.608;9.958;2023-04-01T06:58:10;0.83;;;0.83;;
13855;SDS011;6998;53.608;9.958;2023-04-01T07:00:43;2.30;;;0.90;;
13855;SDS011;6998;53.608;9.958;2023-04-01T07:03:14;2.20;;;1.00;;
13855;SDS011;6998;53.608;9.958;2023-04-01T07:05:46;1.10;;;1.00;;
13855;SDS011;6998;53.608;9.958;2023-04-01T07:08:15;0.90;;;0.80;;
13855;SDS011;6998;53.608;9.958;2023-04-01T07:10:46;0.70;;;0.70;;
13855;SDS011;6998;53.608;9.958;2023-04-01T07:13:18;0.93;;;0.80;;
13855;SDS011;6998;53.608;9.958;2023-04-01T07:15:50;1.17;;;0.87;;
13855;SDS011;6998;53.608;9.958;2023-04-01T07:18:25;1.60;;;0.90;;
13855;SDS011;6998;53.608;9.958;2023-04-01T07:20:58;1.70;;;1.00;;
13855;SDS011;6998;53.608;9.958;2023-04-01T07:23:28;0.90;;;0.90;;
13855;SDS011;6998;53.608;9.958;2023-04-01T07:25:59;0.93;;;0.83;;
13855;SDS011;6998;53.608;9.958;2023-04-01T07:28:34;1.10;;;1.00;;
13855;SDS011;6998;53.608;9.958;2023-04-01T07:31:04;1.07;;;0.87;;
13855;SDS011;6998;53.608;9.958;2023-04-01T07:33:42;0.97;;;0.80;;
13855;SDS011;6998;53.608;9.958;2023-04-01T07:36:17;1.60;;;1.27;;
13855;SDS011;6998;53.608;9.958;2023-04-01T07:38:53;2.00;;;1.10;;
13855;SDS011;6998;53.608;9.958;2023-04-01T07:41:32;1.50;;;1.00;;
13855;SDS011;6998;53.608;9.958;2023-04-01T07:44:10;1.20;;;1.10;;
13855;SDS011;6998;53.608;9.958;2023-04-01T07:46:52;1.20;;;1.10;;
13855;SDS011;6998;53.608;9.958;2023-04-01T07:49:27;1.43;;;1.10;;
13855;SDS011;6998;53.608;9.958;2023-04-01T07:52:01;1.53;;;1.30;;
13855;SDS011;6998;53.608;9.958;2023-04-01T07:54:33;1.60;;;1.17;;
13855;SDS011;6998;53.608;9.958;2023-04-01T07:57:06;2.03;;;1.40;;
13855;SDS011;6998;53.608;9.958;2023-04-01T07:59:39;1.60;;;1.20;;
13855;SDS011;6998;53.608;9.958;2023-04-01T08:02:15;1.53;;;1.10;;
13855;SDS011;6998;53.608;9.958;2023-04-01T08:04:57;1.33;;;1.03;;
13855;SDS011;6998;53.608;9.958;2023-04-01T08:07:31;1.30;;;1.00;;
13855;SDS011;6998;53.608;9.958;2023-04-01T08:10:05;1.93;;;0.93;;
13855;SDS011;6998;53.608;9.958;2023-04-01T08:12:42;1.57;;;1.20;;
13855;SDS011;6998;53.608;9.958;2023-04-01T08:15:21;1.53;;;1.20;;
13855;SDS011;6998;53.608;9.958;2023-04-01T08:17:58;1.60;;;1.40;;
13855;SDS011;6998;53.608;9.958;2023-04-01T08:20:39;1.63;;;0.93;;
13855;SDS011;6998;53.608;9.958;2023-04-01T08:23:12;1.70;;;1.20;;
13855;SDS011;6998;53.608;9.958;2023-04-01T08:25:43;1.90;;;1.03;;
13855;SDS011;6998;53.608;9.958;2023-04-01T08:28:15;1.30;;;1.20;;
13855;SDS011;6998;53.608;9.958;2023-04-01T08:30:49;1.37;;;1.27;;
13855;SDS011;6998;53.608;9.958;2023-04-01T08:33:19;1.43;;;1.10;;
13855;SDS011;6998;53.608;9.958;2023-04-01T08:35:50;1.93;;;1.20;;
13855;SDS011;6998;53.608;9.958;2023-04-01T08:38:21;1.33;;;0.90;;
13855;SDS011;6998;53.608;9.958;2023-04-01T08:47:09;1.00;;;0.90;;
13855;SDS011;6998;53.608;9.958;2023-04-01T08:49:54;2.10;;;0.80;;
13855;SDS011;6998;53.608;9.958;2023-04-01T08:52:35;0.80;;;0.80;;
13855;SDS011;6998;53.608;9.958;2023-04-01T08:57:54;1.00;;;0.90;;
13855;SDS011;6998;53.608;9.958;2023-04-01T09:00:37;1.73;;;1.10;;
13855;SDS011;6998;53.608;9.958;2023-04-01T09:03:18;1.10;;;1.00;;
13855;SDS011;6998;53.608;9.958;2023-04-01T09:12:19;1.37;;;0.93;;
13855;SDS011;6998;53.608;9.958;2023-04-01T09:15:31;1.10;;;1.00;;
13855;SDS011;6998;53.608;9.958;2023-04-01T09:18:24;1.03;;;0.90;;
13855;SDS011;6998;53.608;9.958;2023-04-01T09:21:14;1.53;;;1.43;;
13855;SDS011;6998;53.608;9.958;2023-04-01T09:24:18;1.43;;;1.00;;
13855;SDS011;6998;53.608;9.958;2023-04-01T09:26:57;1.10;;;0.97;;
13855;SDS011;6998;53.608;9.958;2023-04-01T09:29:35;1.23;;;0.73;;
13855;SDS011;6998;53.608;9.958;2023-04-01T09:32:25;1.27;;;1.03;;
13855;SDS011;6998;53.608;9.958;2023-04-01T09:35:19;1.20;;;0.97;;
13855;SDS011;6998;53.608;9.958;2023-04-01T09:37:53;1.80;;;1.03;;
13855;SDS011;6998;53.608;9.958;2023-04-01T09:40:30;1.00;;;0.90;;
13855;SDS011;6998;53.608;9.958;2023-04-01T09:45:55;1.40;;;1.00;;
13855;SDS011;6998;53.608;9.958;2023-04-01T09:51:39;3.23;;;1.00;;
13855;SDS011;6998;53.608;9.958;2023-04-01T09:54:18;1.60;;;1.30;;
13855;SDS011;6998;53.608;9.958;2023-04-01T09:57:04;2.07;;;1.27;;
13855;SDS011;6998;53.608;9.958;2023-04-01T10:00:05;1.40;;;1.10;;
13855;SDS011;6998;53.608;9.958;2023-04-01T10:06:05;0.80;;;0.80;;
13855;SDS011;6998;53.608;9.958;2023-04-01T10:12:33;0.80;;;0.80;;
13855;SDS011;6998;53.608;9.958;2023-04-01T10:15:24;1.60;;;0.90;;
13855;SDS011;6998;53.608;9.958;2023-04-01T10:18:14;0.80;;;0.80;;
13855;SDS011;6998;53.608;9.958;2023-04-01T10:24:19;0.90;;;0.87;;
13855;SDS011;6998;53.608;9.958;2023-04-01T10:27:13;0.80;;;0.70;;
13855;SDS011;6998;53.608;9.958;2023-04-01T10:29:59;7.40;;;0.80;;
13855;SDS011;6998;53.608;9.958;2023-04-01T10:39:10;1.63;;;1.00;;
13855;SDS011;6998;53.608;9.958;2023-04-01T10:42:22;1.07;;;0.60;;
13855;SDS011;6998;53.608;9.958;2023-04-01T10:45:15;0.60;;;0.60;;
13855;SDS011;6998;53.608;9.958;2023-04-01T10:51:14;0.87;;;0.80;;
13855;SDS011;6998;53.608;9.958;2023-04-01T10:56:55;0.83;;;0.70;;
13855;SDS011;6998;53.608;9.958;2023-04-01T10:59:38;0.73;;;0.73;;
13855;SDS011;6998;53.608;9.958;2023-04-01T11:05:50;1.83;;;1.00;;
13855;SDS011;6998;53.608;9.958;2023-04-01T11:09:04;0.80;;;0.80;;
13855;SDS011;6998;53.608;9.958;2023-04-01T11:12:08;1.20;;;0.80;;
13855;SDS011;6998;53.608;9.958;2023-04-01T11:14:54;0.87;;;0.80;;
13855;SDS011;6998;53.608;9.958;2023-04-01T11:17:44;1.20;;;1.10;;
13855;SDS011;6998;53.608;9.958;2023-04-01T11:20:33;1.07;;;0.90;;
13855;SDS011;6998;53.608;9.958;2023-04-01T11:23:17;2.00;;;0.80;;
13855;SDS011;6998;53.608;9.958;2023-04-01T11:26:08;1.47;;;0.90;;
13855;SDS011;6998;53.608;9.958;2023-04-01T11:28:47;1.57;;;1.23;;
13855;SDS011;6998;53.608;9.958;2023-04-01T11:31:34;1.53;;;1.27;;
13855;SDS011;6998;53.608;9.958;2023-04-01T11:34:09;1.20;;;1.07;;
13855;SDS011;6998;53.608;9.958;2023-04-01T11:36:47;1.60;;;1.30;;
13855;SDS011;6998;53.608;9.958;2023-04-01T11:39:27;1.53;;;1.43;;
13855;SDS011;6998;53.608;9.958;2023-04-01T11:42:01;1.57;;;1.47;;
13855;SDS011;6998;53.608;9.958;2023-04-01T11:44:39;1.57;;;1.47;;
13855;SDS011;6998;53.608;9.958;2023-04-01T11:47:24;1.67;;;1.57;;
13855;SDS011;6998;53.608;9.958;2023-04-01T11:50:12;2.03;;;1.80;;
13855;SDS011;6998;53.608;9.958;2023-04-01T11:55:46;4.97;;;2.07;;
13855;SDS011;6998;53.608;9.958;2023-04-01T11:58:26;2.33;;;2.10;;
13855;SDS011;6998;53.608;9.958;2023-04-01T12:01:07;2.47;;;2.10;;
13855;SDS011;6998;53.608;9.958;2023-04-01T12:03:56;3.07;;;2.77;;
13855;SDS011;6998;53.608;9.958;2023-04-01T12:06:38;4.13;;;2.70;;
13855;SDS011;6998;53.608;9.958;2023-04-01T12:09:16;2.97;;;2.67;;
13855;SDS011;6998;53.608;9.958;2023-04-01T12:11:51;3.27;;;2.70;;
13855;SDS011;6998;53.608;9.958;2023-04-01T12:14:33;3.90;;;2.80;;
13855;SDS011;6998;53.608;9.958;2023-04-01T12:17:09;3.50;;;3.10;;
13855;SDS011;6998;53.608;9.958;2023-04-01T12:19:48;3.90;;;3.00;;
13855;SDS011;6998;53.608;9.958;2023-04-01T12:22:37;6.20;;;3.30;;
13855;SDS011;6998;53.608;9.958;2023-04-01T12:25:19;5.93;;;3.10;;
13855;SDS011;6998;53.608;9.958;2023-04-01T12:27:58;5.07;;;3.10;;
13855;SDS011;6998;53.608;9.958;2023-04-01T12:36:30;4.33;;;3.10;;
13855;SDS011;6998;53.608;9.958;2023-04-01T12:39:26;7.40;;;3.20;;
13855;SDS011;6998;53.608;9.958;2023-04-01T12:42:05;3.37;;;2.63;;
13855;SDS011;6998;53.608;9.958;2023-04-01T12:44:47;3.80;;;3.10;;
13855;SDS011;6998;53.608;9.958;2023-04-01T12:50:19;2.87;;;2.60;;
13855;SDS011;6998;53.608;9.958;2023-04-01T12:53:14;5.83;;;3.13;;
13855;SDS011;6998;53.608;9.958;2023-04-01T12:55:58;3.60;;;2.97;;
13855;SDS011;6998;53.608;9.958;2023-04-01T13:01:29;3.80;;;3.30;;
13855;SDS011;6998;53.608;9.958;2023-04-01T13:10:15;6.03;;;4.77;;
13855;SDS011;6998;53.608;9.958;2023-04-01T13:13:00;6.63;;;4.00;;
13855;SDS011;6998;53.608;9.958;2023-04-01T13:15:40;6.17;;;4.63;;
13855;SDS011;6998;53.608;9.958;2023-04-01T13:18:17;6.03;;;4.53;;
13855;SDS011;6998;53.608;9.958;2023-04-01T13:20:57;4.50;;;3.53;;
13855;SDS011;6998;53.608;9.958;2023-04-01T13:23:36;5.73;;;3.60;;
13855;SDS011;6998;53.608;9.958;2023-04-01T13:26:16;6.00;;;3.07;;
13855;SDS011;6998;53.608;9.958;2023-04-01T13:28:50;6.47;;;2.90;;
13855;SDS011;6998;53.608;9.958;2023-04-01T13:31:32;5.03;;;2.93;;
13855;SDS011;6998;53.608;9.958;2023-04-01T13:34:08;6.47;;;2.80;;
13855;SDS011;6998;53.608;9.958;2023-04-01T13:36:46;5.10;;;3.20;;
13855;SDS011;6998;53.608;9.958;2023-04-01T13:39:24;5.83;;;2.90;;
13855;SDS011;6998;53.608;9.958;2023-04-01T13:42:16;6.43;;;3.40;;
13855;SDS011;6998;53.608;9.958;2023-04-01T13:44:51;6.20;;;3.90;;
13855;SDS011;6998;53.608;9.958;2023-04-01T13:47:32;6.30;;;4.23;;
13855;SDS011;6998;53.608;9.958;2023-04-01T13:50:32;5.00;;;3.90;;
13855;SDS011;6998;53.608;9.958;2023-04-01T13:56:08;6.17;;;3.90;;
13855;SDS011;6998;53.608;9.958;2023-04-01T13:58:45;6.30;;;3.73;;
13855;SDS011;6998;53.608;9.958;2023-04-01T14:01:23;5.77;;;3.40;;
13855;SDS011;6998;53.608;9.958;2023-04-01T14:04:18;7.80;;;4.27;;
13855;SDS011;6998;53.608;9.958;2023-04-01T14:07:00;7.00;;;3.97;;
13855;SDS011;6998;53.608;9.958;2023-04-01T14:09:45;6.57;;;4.23;;
13855;SDS011;6998;53.608;9.958;2023-04-01T14:12:27;7.73;;;4.50;;
13855;SDS011;6998;53.608;9.958;2023-04-01T14:15:04;6.70;;;5.03;;
13855;SDS011;6998;53.608;9.958;2023-04-01T14:17:49;6.67;;;4.23;;
13855;SDS011;6998;53.608;9.958;2023-04-01T14:20:25;10.13;;;4.53;;
13855;SDS011;6998;53.608;9.958;2023-04-01T14:25:55;9.50;;;4.93;;
13855;SDS011;6998;53.608;9.958;2023-04-01T14:28:34;6.73;;;4.67;;
13855;SDS011;6998;53.608;9.958;2023-04-01T14:31:17;7.27;;;4.63;;
13855;SDS011;6998;53.608;9.958;2023-04-01T14:33:57;4.90;;;3.83;;
13855;SDS011;6998;53.608;9.958;2023-04-01T14:36:39;9.10;;;5.00;;
13855;SDS011;6998;53.608;9.958;2023-04-01T14:39:18;6.40;;;5.00;;
13855;SDS011;6998;53.608;9.958;2023-04-01T14:42:18;8.07;;;4.73;;
13855;SDS011;6998;53.608;9.958;2023-04-01T14:45:07;7.40;;;4.57;;
13855;SDS011;6998;53.608;9.958;2023-04-01T14:47:53;7.97;;;4.70;;
13855;SDS011;6998;53.608;9.958;2023-04-01T14:50:23;6.97;;;4.37;;
13855;SDS011;6998;53.608;9.958;2023-04-01T14:52:58;10.43;;;5.10;;
13855;SDS011;6998;53.608;9.958;2023-04-01T14:55:36;9.73;;;5.37;;
13855;SDS011;6998;53.608;9.958;2023-04-01T14:58:16;9.33;;;5.13;;
13855;SDS011;6998;53.608;9.958;2023-04-01T15:00:48;11.83;;;5.37;;
13855;SDS011;6998;53.608;9.958;2023-04-01T15:03:24;7.00;;;5.07;;
13855;SDS011;6998;53.608;9.958;2023-04-01T15:05:56;8.87;;;5.37;;
13855;SDS011;6998;53.608;9.958;2023-04-01T15:08:42;11.37;;;5.67;;
13855;SDS011;6998;53.608;9.958;2023-04-01T15:11:21;8.23;;;4.77;;
13855;SDS011;6998;53.608;9.958;2023-04-01T15:14:00;8.47;;;4.73;;
13855;SDS011;6998;53.608;9.958;2023-04-01T15:16:55;7.40;;;5.10;;
13855;SDS011;6998;53.608;9.958;2023-04-01T15:19:39;6.33;;;4.80;;
13855;SDS011;6998;53.608;9.958;2023-04-01T15:22:25;7.43;;;5.20;;
13855;SDS011;6998;53.608;9.958;2023-04-01T15:25:14;7.17;;;4.80;;
13855;SDS011;6998;53.608;9.958;2023-04-01T15:27:53;7.90;;;4.23;;
13855;SDS011;6998;53.608;9.958;2023-04-01T15:30:30;8.00;;;4.77;;
13855;SDS011;6998;53.608;9.958;2023-04-01T15:35:56;7.67;;;5.17;;
13855;SDS011;6998;53.608;9.958;2023-04-01T15:38:33;7.00;;;4.63;;
13855;SDS011;6998;53.608;9.958;2023-04-01T15:41:07;8.03;;;4.77;;
13855;SDS011;6998;53.608;9.958;2023-04-01T15:43:42;8.90;;;5.10;;
13855;SDS011;6998;53.608;9.958;2023-04-01T15:49:12;15.17;;;12.20;;
13855;SDS011;6998;53.608;9.958;2023-04-01T15:51:54;16.27;;;9.67;;
13855;SDS011;6998;53.608;9.958;2023-04-01T15:57:25;15.37;;;9.47;;
13855;SDS011;6998;53.608;9.958;2023-04-01T16:00:02;23.07;;;14.00;;
13855;SDS011;6998;53.608;9.958;2023-04-01T16:02:42;10.93;;;8.23;;
13855;SDS011;6998;53.608;9.958;2023-04-01T16:05:23;14.20;;;7.57;;
13855;SDS011;6998;53.608;9.958;2023-04-01T16:10:58;18.10;;;12.40;;
13855;SDS011;6998;53.608;9.958;2023-04-01T16:13:40;12.47;;;6.90;;
13855;SDS011;6998;53.608;9.958;2023-04-01T16:16:17;10.80;;;6.97;;
13855;SDS011;6998;53.608;9.958;2023-04-01T16:18:56;10.33;;;5.57;;
13855;SDS011;6998;53.608;9.958;2023-04-01T16:21:36;8.90;;;5.40;;
13855;SDS011;6998;53.608;9.958;2023-04-01T16:24:12;10.30;;;5.90;;
13855;SDS011;6998;53.608;9.958;2023-04-01T16:26:44;9.80;;;7.80;;
13855;SDS011;6998;53.608;9.958;2023-04-01T16:29:19;6.73;;;5.00;;
13855;SDS011;6998;53.608;9.958;2023-04-01T16:31:55;7.67;;;5.50;;
13855;SDS011;6998;53.608;9.958;2023-04-01T16:34:38;10.03;;;8.70;;
13855;SDS011;6998;53.608;9.958;2023-04-01T16:37:10;11.87;;;6.13;;
13855;SDS011;6998;53.608;9.958;2023-04-01T16:39:44;10.30;;;6.00;;
13855;SDS011;6998;53.608;9.958;2023-04-01T16:42:26;12.00;;;6.70;;
13855;SDS011;6998;53.608;9.958;2023-04-01T16:45:06;9.03;;;6.33;;
13855;SDS011;6998;53.608;9.958;2023-04-01T16:47:49;10.33;;;7.70;;
13855;SDS011;6998;53.608;9.958;2023-04-01T16:50:20;10.83;;;6.13;;
13855;SDS011;6998;53.608;9.958;2023-04-01T16:52:57;12.03;;;6.97;;
13855;SDS011;6998;53.608;9.958;2023-04-01T16:55:35;9.67;;;6.07;;
13855;SDS011;6998;53.608;9.958;2023-04-01T16:58:14;12.70;;;6.67;;
13855;SDS011;6998;53.608;9.958;2023-04-01T17:00:48;9.87;;;5.50;;
13855;SDS011;6998;53.608;9.958;2023-04-01T17:03:17;8.77;;;5.47;;
13855;SDS011;6998;53.608;9.958;2023-04-01T17:05:52;13.10;;;5.57;;
13855;SDS011;6998;53.608;9.958;2023-04-01T17:08:33;9.97;;;5.33;;
13855;SDS011;6998;53.608;9.958;2023-04-01T17:11:16;10.50;;;5.73;;
13855;SDS011;6998;53.608;9.958;2023-04-01T17:13:49;8.93;;;6.53;;
13855;SDS011;6998;53.608;9.958;2023-04-01T17:16:26;9.93;;;5.90;;
13855;SDS011;6998;53.608;9.958;2023-04-01T17:19:06;6.53;;;4.50;;
13855;SDS011;6998;53.608;9.958;2023-04-01T17:21:46;11.13;;;4.73;;